Time;durP1;ratioP1;P1;durP2;ratioP2;P2;SDS_P1;SDS_P2;PMS_P1;PMS_P2;Temp;Humidity;BMP_temperature;BMP_pressure;BME280_temperature;BME280_humidity;BME280_pressure;Samples;Min_cycle;Max_cycle;Signal;HPM_P1;HPM_P2
2023/03/03 00:02:19;;;;;;;;;;;18.70;43.20;;;;;;10413190;28;1910;-71
2023/03/03 00:07:20;;;;;;;;;;;18.80;43.30;;;;;;10414622;28;885;-71
2023/03/03 00:12:15;;;;;;;;;;;18.70;43.10;;;;;;10414385;28;873;-71
2023/03/03 00:17:11;;;;;;;;;;;18.70;43.20;;;;;;10413579;28;953;-71
2023/03/03 00:22:06;;;;;;;;;;;18.80;43.20;;;;;;10413302;28;1959;-71
2023/03/03 00:27:01;;;;;;;;;;;18.70;43.20;;;;;;10412574;28;789;-71
2023/03/03 00:31:57;;;;;;;;;;;18.70;43.20;;;;;;10413711;28;869;-71
2023/03/03 00:36:53;;;;;;;;;;;18.70;43.20;;;;;;10412933;28;979;-71
2023/03/03 00:41:48;;;;;;;;;;;18.70;43.20;;;;;;10413193;28;1964;-71
2023/03/03 00:46:44;;;;;;;;;;;18.70;43.20;;;;;;10412465;28;844;-71
2023/03/03 00:51:39;;;;;;;;;;;18.70;43.20;;;;;;10412743;28;1182;-71
2023/03/03 00:56:34;;;;;;;;;;;18.70;43.30;;;;;;10412035;28;1023;-71
2023/03/03 01:01:30;;;;;;;;;;;18.70;43.10;;;;;;10412401;28;1983;-71
2023/03/03 01:06:27;;;;;;;;;;;18.70;43.20;;;;;;10411025;28;901;-71
2023/03/03 01:11:23;;;;;;;;;;;18.70;43.10;;;;;;10411798;28;849;-71
2023/03/03 01:16:18;;;;;;;;;;;18.70;43.10;;;;;;10411351;28;848;-71
2023/03/03 01:21:13;;;;;;;;;;;18.70;43.10;;;;;;10412129;28;1967;-71
2023/03/03 01:26:09;;;;;;;;;;;18.70;43.10;;;;;;10410926;28;945;-71
2023/03/03 01:31:04;;;;;;;;;;;18.70;43.00;;;;;;10411282;28;861;-71
2023/03/03 01:36:00;;;;;;;;;;;18.60;43.00;;;;;;10411084;28;862;-71
2023/03/03 01:40:55;;;;;;;;;;;18.60;43.00;;;;;;10410831;28;1955;-71
2023/03/03 01:45:52;;;;;;;;;;;18.70;43.10;;;;;;10410055;28;790;-71
2023/03/03 01:50:47;;;;;;;;;;;18.60;43.00;;;;;;10409412;28;1421;-71
2023/03/03 01:55:42;;;;;;;;;;;18.60;43.10;;;;;;10409102;28;830;-71
2023/03/03 02:00:38;;;;;;;;;;;18.60;43.10;;;;;;10410067;28;1983;-71
2023/03/03 02:05:33;;;;;;;;;;;18.60;43.10;;;;;;10409838;28;855;-71
2023/03/03 02:10:28;;;;;;;;;;;18.60;43.20;;;;;;10409079;28;909;-71
2023/03/03 02:15:24;;;;;;;;;;;18.60;43.20;;;;;;10409669;28;833;-71
2023/03/03 02:20:19;;;;;;;;;;;18.60;43.00;;;;;;10408970;28;1977;-71
2023/03/03 02:25:15;;;;;;;;;;;18.60;43.10;;;;;;10409203;28;877;-71
2023/03/03 02:30:10;;;;;;;;;;;18.60;43.10;;;;;;10408806;28;920;-71
2023/03/03 02:35:05;;;;;;;;;;;18.60;43.20;;;;;;10408855;28;821;-71
2023/03/03 02:40:01;;;;;;;;;;;18.50;43.00;;;;;;10408155;28;1914;-71
2023/03/03 02:44:56;;;;;;;;;;;18.50;43.10;;;;;;10407974;28;783;-71
2023/03/03 02:49:52;;;;;;;;;;;18.50;43.10;;;;;;10408329;28;1298;-71
2023/03/03 02:54:47;;;;;;;;;;;18.50;43.10;;;;;;10408446;28;888;-71
2023/03/03 02:59:44;;;;;;;;;;;18.60;43.10;;;;;;10406938;28;1898;-71
2023/03/03 03:04:39;;;;;;;;;;;18.50;43.10;;;;;;10407655;28;871;-71
2023/03/03 03:09:34;;;;;;;;;;;18.50;43.10;;;;;;10408198;28;929;-71
2023/03/03 03:14:30;;;;;;;;;;;18.50;43.10;;;;;;10407455;28;872;-71
2023/03/03 03:19:25;;;;;;;;;;;18.50;43.10;;;;;;10406950;28;1918;-71
2023/03/03 03:24:21;;;;;;;;;;;18.50;43.20;;;;;;10407280;28;848;-71
2023/03/03 03:29:16;;;;;;;;;;;18.50;43.10;;;;;;10407786;28;996;-71
2023/03/03 03:34:11;;;;;;;;;;;18.50;43.10;;;;;;10410830;28;810;-71
2023/03/03 03:39:07;;;;;;;;;;;18.50;43.10;;;;;;10415104;28;1910;-71
2023/03/03 03:44:02;;;;;;;;;;;18.50;43.20;;;;;;10414334;28;1140;-71
2023/03/03 03:48:57;;;;;;;;;;;18.50;43.10;;;;;;10414887;28;1166;-71
2023/03/03 03:53:53;;;;;;;;;;;18.50;43.10;;;;;;10414559;28;863;-71
2023/03/03 03:58:48;;;;;;;;;;;18.50;43.70;;;;;;10414358;28;878;-71
2023/03/03 04:03:44;;;;;;;;;;;18.40;43.10;;;;;;10414100;28;1965;-71
2023/03/03 04:08:39;;;;;;;;;;;18.50;43.20;;;;;;10413986;28;798;-71
2023/03/03 04:13:34;;;;;;;;;;;18.40;43.10;;;;;;10413781;28;871;-71
2023/03/03 04:18:30;;;;;;;;;;;18.40;43.10;;;;;;10413833;28;1033;-72
2023/03/03 04:23:25;;;;;;;;;;;18.40;43.10;;;;;;10414426;28;1906;-71
2023/03/03 04:28:21;;;;;;;;;;;18.40;43.20;;;;;;10413231;28;754;-71
2023/03/03 04:33:16;;;;;;;;;;;18.40;43.20;;;;;;10412982;28;865;-71
2023/03/03 04:38:11;;;;;;;;;;;18.40;43.20;;;;;;10412260;28;935;-71
2023/03/03 04:43:07;;;;;;;;;;;18.40;43.20;;;;;;10411983;28;1969;-71
2023/03/03 04:48:02;;;;;;;;;;;18.30;43.20;;;;;;10411557;28;1305;-71
2023/03/03 04:52:58;;;;;;;;;;;18.30;43.20;;;;;;10412305;28;833;-81
2023/03/03 04:57:53;;;;;;;;;;;18.30;43.20;;;;;;10412208;28;761;-71
2023/03/03 05:02:48;;;;;;;;;;;18.40;43.30;;;;;;10412466;28;1918;-71
2023/03/03 05:07:44;;;;;;;;;;;18.40;43.10;;;;;;10412357;28;853;-71
2023/03/03 05:12:39;;;;;;;;;;;18.40;43.10;;;;;;10411512;28;881;-72
2023/03/03 05:17:35;;;;;;;;;;;18.40;43.10;;;;;;10411944;28;833;-71
2023/03/03 05:22:30;;;;;;;;;;;18.50;43.10;;;;;;10411147;28;1906;-71
2023/03/03 05:27:25;;;;;;;;;;;18.50;43.10;;;;;;10411482;28;834;-71
2023/03/03 05:32:21;;;;;;;;;;;18.50;43.20;;;;;;10410951;28;802;-75
2023/03/03 05:37:16;;;;;;;;;;;18.50;43.20;;;;;;10410415;28;910;-74
2023/03/03 05:42:12;;;;;;;;;;;18.50;43.80;;;;;;10410775;28;1905;-80
2023/03/03 05:47:07;;;;;;;;;;;18.40;43.10;;;;;;10409736;28;971;-74
2023/03/03 05:52:02;;;;;;;;;;;18.50;43.20;;;;;;10411034;28;1414;-74
2023/03/03 05:56:58;;;;;;;;;;;18.50;43.20;;;;;;10408750;28;880;-75
2023/03/03 06:01:53;;;;;;;;;;;18.50;43.30;;;;;;10409702;28;1910;-81
2023/03/03 06:06:48;;;;;;;;;;;18.50;43.30;;;;;;10409417;28;827;-75
2023/03/03 06:11:44;;;;;;;;;;;18.50;43.30;;;;;;10409175;28;770;-75
2023/03/03 06:16:39;;;;;;;;;;;18.50;43.60;;;;;;10409647;28;953;-75
2023/03/03 06:21:34;;;;;;;;;;;18.50;43.50;;;;;;10409449;28;1910;-76
2023/03/03 06:26:30;;;;;;;;;;;18.50;43.50;;;;;;10409247;28;893;-76
2023/03/03 06:31:25;;;;;;;;;;;18.50;43.50;;;;;;10407972;28;1016;-76
2023/03/03 06:36:22;;;;;;;;;;;18.50;43.50;;;;;;10408292;28;802;-79
2023/03/03 06:41:17;;;;;;;;;;;18.50;43.50;;;;;;10408106;28;1901;-78
2023/03/03 06:46:13;;;;;;;;;;;18.50;43.60;;;;;;10408663;28;798;-76
2023/03/03 06:51:08;;;;;;;;;;;18.50;43.50;;;;;;10407256;28;1281;-75
2023/03/03 06:56:03;;;;;;;;;;;18.50;43.60;;;;;;10407892;28;821;-75
2023/03/03 07:00:59;;;;;;;;;;;18.50;43.70;;;;;;10408290;28;1977;-75
2023/03/03 07:05:54;;;;;;;;;;;18.40;43.70;;;;;;10407189;28;826;-75
2023/03/03 07:10:50;;;;;;;;;;;18.40;43.90;;;;;;10414461;28;783;-74
2023/03/03 07:15:45;;;;;;;;;;;18.40;43.90;;;;;;10416832;28;935;-75
2023/03/03 07:20:40;;;;;;;;;;;18.30;43.80;;;;;;10416461;28;1910;-74
2023/03/03 07:25:36;;;;;;;;;;;18.40;43.80;;;;;;10415701;28;899;-75
2023/03/03 07:30:31;;;;;;;;;;;18.40;43.80;;;;;;10415483;28;900;-75
2023/03/03 07:35:27;;;;;;;;;;;18.40;43.80;;;;;;10415296;28;931;-75
2023/03/03 07:40:22;;;;;;;;;;;18.50;43.80;;;;;;10414995;28;1907;-75
2023/03/03 07:45:17;;;;;;;;;;;18.40;43.80;;;;;;10415636;28;875;-75
2023/03/03 07:50:13;;;;;;;;;;;18.40;43.80;;;;;;10414568;28;1181;-75
2023/03/03 07:55:08;;;;;;;;;;;18.40;43.80;;;;;;10414608;28;877;-74
2023/03/03 08:00:03;;;;;;;;;;;18.40;43.80;;;;;;10414321;28;1968;-75
2023/03/03 08:04:59;;;;;;;;;;;18.40;43.80;;;;;;10415050;28;873;-76
2023/03/03 08:09:54;;;;;;;;;;;18.40;43.90;;;;;;10414564;28;829;-74
2023/03/03 08:14:49;;;;;;;;;;;18.40;43.90;;;;;;10413233;28;842;-75
2023/03/03 08:19:45;;;;;;;;;;;18.40;43.90;;;;;;10413154;28;1906;-75
2023/03/03 08:24:40;;;;;;;;;;;18.40;43.90;;;;;;10413583;28;923;-75
2023/03/03 08:29:36;;;;;;;;;;;18.40;43.90;;;;;;10412659;28;854;-75
2023/03/03 08:34:31;;;;;;;;;;;18.40;43.90;;;;;;10413634;28;869;-75
2023/03/03 08:39:26;;;;;;;;;;;18.40;43.90;;;;;;10412724;28;1897;-75
2023/03/03 08:44:22;;;;;;;;;;;18.50;43.90;;;;;;10412637;28;818;-75
2023/03/03 08:49:17;;;;;;;;;;;18.40;44.00;;;;;;10412060;28;1219;-78
2023/03/03 08:54:12;;;;;;;;;;;18.40;44.00;;;;;;10412247;28;786;-77
2023/03/03 08:59:08;;;;;;;;;;;18.40;44.10;;;;;;10413276;28;1976;-76
2023/03/03 09:04:03;;;;;;;;;;;18.40;44.00;;;;;;10411273;28;988;-77
2023/03/03 09:08:58;;;;;;;;;;;18.40;44.00;;;;;;10412353;28;810;-76
2023/03/03 09:13:54;;;;;;;;;;;18.40;44.10;;;;;;10411515;28;1052;-76
2023/03/03 09:18:49;;;;;;;;;;;18.40;44.20;;;;;;10411865;28;882;-74
2023/03/03 09:23:45;;;;;;;;;;;18.40;44.10;;;;;;10411087;28;1894;-75
2023/03/03 09:28:40;;;;;;;;;;;18.40;44.20;;;;;;10411618;28;763;-74
2023/03/03 09:33:35;;;;;;;;;;;18.50;44.40;;;;;;10409861;28;905;-75
2023/03/03 09:38:31;;;;;;;;;;;18.40;44.30;;;;;;10411099;28;862;-75
2023/03/03 09:43:26;;;;;;;;;;;18.40;44.40;;;;;;10410216;28;1902;-74
2023/03/03 09:48:21;;;;;;;;;;;18.40;44.40;;;;;;10410011;28;1381;-75
2023/03/03 09:53:18;;;;;;;;;;;18.30;44.40;;;;;;10409335;28;899;-75
2023/03/03 09:58:13;;;;;;;;;;;18.30;44.40;;;;;;10410294;28;806;-74
2023/03/03 10:03:09;;;;;;;;;;;18.30;45.00;;;;;;10383277;28;1973;-74
2023/03/03 10:08:04;;;;;;;;;;;18.40;44.60;;;;;;10368263;28;845;-74
2023/03/03 10:12:59;;;;;;;;;;;18.40;44.60;;;;;;10367838;28;1008;-74
2023/03/03 10:17:55;;;;;;;;;;;18.40;44.60;;;;;;10368160;28;1066;-74
2023/03/03 10:22:50;;;;;;;;;;;18.40;44.60;;;;;;10367456;28;1909;-74
2023/03/03 10:27:45;;;;;;;;;;;18.40;44.60;;;;;;10367270;28;854;-74
2023/03/03 10:32:41;;;;;;;;;;;18.40;44.60;;;;;;10367058;28;806;-74
2023/03/03 10:37:36;;;;;;;;;;;18.40;44.60;;;;;;10367279;28;1140;-74
2023/03/03 10:42:32;;;;;;;;;;;18.40;44.70;;;;;;10367107;28;1897;-75
2023/03/03 10:47:27;;;;;;;;;;;18.40;44.70;;;;;;10366727;28;880;-75
2023/03/03 10:52:22;;;;;;;;;;;18.40;44.70;;;;;;10366866;28;1371;-75
2023/03/03 10:57:18;;;;;;;;;;;18.40;44.70;;;;;;10366735;28;786;-75
2023/03/03 11:02:14;;;;;;;;;;;18.40;44.70;;;;;;10366546;28;1972;-74
2023/03/03 12:41:24;;;;;;;;;;;18.40;45.00;;;;;;9670963;22;2220;-75
2023/03/03 12:46:20;;;;;;;;;;;18.40;44.30;;;;;;10371216;28;863;-76
2023/03/03 12:51:15;;;;;;;;;;;18.40;44.30;;;;;;10370968;28;869;-76
2023/03/03 12:56:10;;;;;;;;;;;18.40;44.30;;;;;;10370738;28;887;-76
2023/03/03 13:01:07;;;;;;;;;;;18.40;44.20;;;;;;10369815;28;1965;-75
2023/03/03 13:06:02;;;;;;;;;;;18.40;44.40;;;;;;10369460;28;794;-76
2023/03/03 13:10:57;;;;;;;;;;;18.40;44.20;;;;;;10370843;28;873;-75
2023/03/03 13:15:53;;;;;;;;;;;18.40;44.30;;;;;;10370031;28;771;-75
2023/03/03 13:20:49;;;;;;;;;;;18.40;44.20;;;;;;10369101;28;1955;-75
2023/03/03 13:25:44;;;;;;;;;;;18.40;44.20;;;;;;10370154;28;802;-75
2023/03/03 13:30:40;;;;;;;;;;;18.50;44.30;;;;;;10369374;28;953;-75
2023/03/03 13:35:35;;;;;;;;;;;18.40;44.20;;;;;;10369173;28;767;-75
2023/03/03 13:40:31;;;;;;;;;;;18.40;44.40;;;;;;10368940;28;1991;-75
2023/03/03 13:45:26;;;;;;;;;;;18.40;44.50;;;;;;10368827;28;794;-75
2023/03/03 13:50:21;;;;;;;;;;;18.40;44.40;;;;;;10369184;28;854;-76
2023/03/03 13:55:17;;;;;;;;;;;18.40;44.50;;;;;;10368926;28;810;-77
2023/03/03 14:00:12;;;;;;;;;;;18.40;44.40;;;;;;10367809;28;1976;-75
2023/03/03 14:05:08;;;;;;;;;;;18.40;44.40;;;;;;10368302;28;880;-76
2023/03/03 14:10:03;;;;;;;;;;;18.40;44.30;;;;;;10368118;28;972;-76
2023/03/03 14:14:58;;;;;;;;;;;18.40;44.30;;;;;;10367370;28;830;-78
2023/03/03 14:19:54;;;;;;;;;;;18.40;44.30;;;;;;10367173;28;1914;-75
2023/03/03 14:24:49;;;;;;;;;;;18.40;44.40;;;;;;10367134;28;920;-76
2023/03/03 14:29:46;;;;;;;;;;;18.40;44.40;;;;;;10367492;28;870;-76
2023/03/03 14:34:41;;;;;;;;;;;18.40;44.40;;;;;;10367503;28;832;-76
2023/03/03 14:39:36;;;;;;;;;;;18.40;44.40;;;;;;10366430;28;1979;-75
2023/03/03 14:44:32;;;;;;;;;;;18.40;44.40;;;;;;10367253;28;842;-75
2023/03/03 14:49:29;;;;;;;;;;;18.40;44.40;;;;;;10366949;28;794;-77
2023/03/03 14:54:24;;;;;;;;;;;18.40;44.40;;;;;;10366313;28;843;-76
2023/03/03 14:59:20;;;;;;;;;;;18.40;44.40;;;;;;10366079;28;1914;-76
2023/03/03 15:04:15;;;;;;;;;;;18.40;44.40;;;;;;10366245;28;818;-71
2023/03/03 15:09:10;;;;;;;;;;;18.40;44.40;;;;;;10366242;28;842;-71
2023/03/03 15:14:06;;;;;;;;;;;18.30;44.50;;;;;;10365536;28;818;-77
2023/03/03 15:19:01;;;;;;;;;;;18.30;44.30;;;;;;10365435;28;886;-77
2023/03/03 15:23:56;;;;;;;;;;;18.30;44.20;;;;;;10366463;28;1882;-76
2023/03/03 15:28:52;;;;;;;;;;;18.30;44.10;;;;;;10368056;28;930;-77
2023/03/03 15:33:47;;;;;;;;;;;18.40;44.10;;;;;;10373984;28;958;-79
2023/03/03 15:38:43;;;;;;;;;;;18.40;44.00;;;;;;10374404;28;787;-77
2023/03/03 15:43:38;;;;;;;;;;;18.40;44.00;;;;;;10373222;28;1894;-79
2023/03/03 15:48:34;;;;;;;;;;;18.50;44.00;;;;;;10373403;28;867;-78
2023/03/03 15:53:29;;;;;;;;;;;18.50;44.10;;;;;;10373473;28;864;-74
2023/03/03 15:58:24;;;;;;;;;;;18.40;44.20;;;;;;10373016;28;900;-77
2023/03/03 16:03:20;;;;;;;;;;;18.40;44.20;;;;;;10372916;28;1897;-77
2023/03/03 16:08:15;;;;;;;;;;;18.50;44.20;;;;;;10373239;28;838;-73
2023/03/03 16:13:11;;;;;;;;;;;18.50;44.10;;;;;;10373781;28;877;-77
2023/03/03 16:18:06;;;;;;;;;;;18.50;44.10;;;;;;10373041;28;918;-77
2023/03/03 16:23:01;;;;;;;;;;;18.50;44.20;;;;;;10372216;28;1964;-75
2023/03/03 16:27:57;;;;;;;;;;;18.50;44.90;;;;;;10371964;28;859;-75
2023/03/03 16:32:52;;;;;;;;;;;18.40;44.50;;;;;;10372353;28;893;-76
2023/03/03 16:37:48;;;;;;;;;;;18.40;44.60;;;;;;10370963;28;1008;-77
2023/03/03 16:42:43;;;;;;;;;;;18.40;44.70;;;;;;10369394;28;1910;-77
2023/03/03 16:47:38;;;;;;;;;;;18.40;44.90;;;;;;10371169;28;837;-73
2023/03/03 16:52:34;;;;;;;;;;;18.30;44.80;;;;;;10371443;28;860;-73
2023/03/03 16:57:29;;;;;;;;;;;18.20;44.80;;;;;;10370977;28;984;-76
2023/03/03 17:02:25;;;;;;;;;;;18.20;44.70;;;;;;10370503;28;1902;-76
2023/03/03 17:07:20;;;;;;;;;;;18.20;44.40;;;;;;10370418;28;916;-76
2023/03/03 17:12:15;;;;;;;;;;;18.30;44.30;;;;;;10369519;28;1188;-77
2023/03/03 17:17:11;;;;;;;;;;;18.30;44.30;;;;;;10369981;28;858;-76
2023/03/03 17:22:06;;;;;;;;;;;18.40;44.30;;;;;;10369134;28;1905;-76
2023/03/03 17:27:02;;;;;;;;;;;18.40;44.20;;;;;;10369529;28;906;-76
2023/03/03 17:31:57;;;;;;;;;;;18.40;44.20;;;;;;10369398;28;834;-76
2023/03/03 17:36:52;;;;;;;;;;;18.40;44.20;;;;;;10370415;28;862;-76
2023/03/03 17:41:48;;;;;;;;;;;18.30;44.20;;;;;;10369030;28;1910;-76
2023/03/03 17:46:43;;;;;;;;;;;18.40;44.30;;;;;;10368806;28;914;-76
2023/03/03 17:51:38;;;;;;;;;;;18.40;44.40;;;;;;10368449;28;894;-76
2023/03/03 17:56:34;;;;;;;;;;;18.40;44.30;;;;;;10368427;28;865;-76
2023/03/03 18:01:29;;;;;;;;;;;18.40;44.30;;;;;;10368116;28;1962;-76
2023/03/03 18:06:25;;;;;;;;;;;18.40;44.30;;;;;;10368122;28;944;-76
2023/03/03 18:11:20;;;;;;;;;;;18.40;44.20;;;;;;10367315;28;808;-76
2023/03/03 18:16:15;;;;;;;;;;;18.40;44.20;;;;;;10367786;28;880;-76
2023/03/03 18:21:11;;;;;;;;;;;18.40;44.20;;;;;;10368080;28;1902;-76
2023/03/03 18:26:06;;;;;;;;;;;18.40;44.20;;;;;;10367404;28;866;-76
2023/03/03 18:31:03;;;;;;;;;;;18.40;44.20;;;;;;10367822;28;897;-76
2023/03/03 18:35:58;;;;;;;;;;;18.30;44.10;;;;;;10366515;28;915;-76
2023/03/03 18:40:54;;;;;;;;;;;18.40;44.10;;;;;;10366696;28;1913;-76
2023/03/03 18:45:49;;;;;;;;;;;18.40;44.00;;;;;;10367392;28;858;-76
2023/03/03 18:50:44;;;;;;;;;;;18.40;44.10;;;;;;10366861;28;803;-76
2023/03/03 18:55:40;;;;;;;;;;;18.40;44.00;;;;;;10367366;28;803;-76
2023/03/03 19:00:35;;;;;;;;;;;18.40;44.00;;;;;;10366344;28;1905;-76
2023/03/03 19:05:31;;;;;;;;;;;18.40;44.00;;;;;;10365779;28;826;-76
2023/03/03 19:10:26;;;;;;;;;;;18.40;43.90;;;;;;10366923;28;874;-76
2023/03/03 19:15:21;;;;;;;;;;;18.40;44.00;;;;;;10366722;28;868;-76
2023/03/03 19:20:17;;;;;;;;;;;18.40;44.00;;;;;;10366441;28;1972;-78
2023/03/03 19:25:12;;;;;;;;;;;18.40;43.90;;;;;;10365863;28;877;-77
2023/03/03 19:30:07;;;;;;;;;;;18.30;43.80;;;;;;10366424;28;933;-77
2023/03/03 19:35:03;;;;;;;;;;;18.30;43.60;;;;;;10365774;28;791;-73
2023/03/03 19:39:59;;;;;;;;;;;18.30;43.30;;;;;;10365834;28;1910;-74
2023/03/03 19:44:55;;;;;;;;;;;18.30;43.30;;;;;;10365638;28;779;-75
2023/03/03 19:49:50;;;;;;;;;;;18.30;43.20;;;;;;10366125;28;897;-75
2023/03/03 19:54:45;;;;;;;;;;;18.40;43.20;;;;;;10366049;28;925;-75
2023/03/03 19:59:41;;;;;;;;;;;18.40;43.20;;;;;;10365308;28;1906;-75
2023/03/03 20:04:37;;;;;;;;;;;18.40;43.10;;;;;;10365255;28;871;-74
2023/03/03 20:09:32;;;;;;;;;;;18.40;43.20;;;;;;10364958;28;921;-75
2023/03/03 20:14:27;;;;;;;;;;;18.50;43.30;;;;;;10365647;28;763;-75
2023/03/03 20:19:23;;;;;;;;;;;18.40;43.40;;;;;;10372293;28;859;-75
2023/03/03 20:24:18;;;;;;;;;;;18.40;43.40;;;;;;10372711;28;1903;-74
2023/03/03 20:29:13;;;;;;;;;;;18.40;43.40;;;;;;10372594;28;859;-74
2023/03/03 20:34:09;;;;;;;;;;;18.40;43.40;;;;;;10371179;28;869;-75
2023/03/03 20:39:05;;;;;;;;;;;18.40;43.40;;;;;;10370711;28;1113;-75
2023/03/03 20:44:00;;;;;;;;;;;18.40;43.40;;;;;;10371426;28;1977;-74
2023/03/03 20:48:55;;;;;;;;;;;18.40;43.60;;;;;;10371186;28;867;-75
2023/03/03 20:53:51;;;;;;;;;;;18.30;43.60;;;;;;10371615;28;846;-75
2023/03/03 20:58:46;;;;;;;;;;;18.20;43.70;;;;;;10370821;28;897;-75
2023/03/03 21:03:41;;;;;;;;;;;18.20;43.70;;;;;;10371168;28;1961;-74
2023/03/03 21:08:37;;;;;;;;;;;18.30;43.60;;;;;;10370340;28;865;-75
2023/03/03 21:13:32;;;;;;;;;;;18.20;43.70;;;;;;10370225;28;873;-74
2023/03/03 21:18:28;;;;;;;;;;;18.20;43.80;;;;;;10369916;28;957;-74
2023/03/03 21:23:23;;;;;;;;;;;18.20;43.70;;;;;;10369775;28;1978;-75
2023/03/03 21:28:18;;;;;;;;;;;18.20;43.70;;;;;;10369806;28;963;-75
2023/03/03 21:33:14;;;;;;;;;;;18.10;43.70;;;;;;10369380;28;857;-74
2023/03/03 21:38:09;;;;;;;;;;;18.10;43.80;;;;;;10369850;28;943;-74
2023/03/03 21:43:04;;;;;;;;;;;18.10;43.80;;;;;;10369293;28;1933;-75
2023/03/03 21:48:01;;;;;;;;;;;18.10;43.80;;;;;;10370107;28;869;-75
2023/03/03 21:52:57;;;;;;;;;;;18.10;43.90;;;;;;10369341;28;988;-75
2023/03/03 21:57:52;;;;;;;;;;;18.00;44.50;;;;;;10368446;28;791;-75
2023/03/03 22:02:48;;;;;;;;;;;18.00;44.00;;;;;;10369029;28;1945;-74
2023/03/03 22:07:43;;;;;;;;;;;18.00;44.00;;;;;;10368056;28;949;-75
2023/03/03 22:12:38;;;;;;;;;;;18.00;44.00;;;;;;10367934;28;859;-75
2023/03/03 22:17:34;;;;;;;;;;;17.90;44.00;;;;;;10367144;28;877;-75
2023/03/03 22:22:29;;;;;;;;;;;17.90;44.00;;;;;;10367639;28;1914;-75
2023/03/03 22:27:24;;;;;;;;;;;17.90;44.10;;;;;;10367366;28;936;-75
2023/03/03 22:32:20;;;;;;;;;;;17.90;44.10;;;;;;10367246;28;802;-75
2023/03/03 22:37:15;;;;;;;;;;;17.90;44.10;;;;;;10367593;28;866;-75
2023/03/03 22:42:10;;;;;;;;;;;17.90;44.70;;;;;;10366440;28;1910;-75
2023/03/03 22:47:06;;;;;;;;;;;17.90;44.10;;;;;;10366785;28;947;-75
2023/03/03 22:52:01;;;;;;;;;;;17.90;44.10;;;;;;10366663;28;826;-75
2023/03/03 22:56:57;;;;;;;;;;;17.90;44.10;;;;;;10365962;28;880;-75
2023/03/03 23:01:52;;;;;;;;;;;17.90;44.00;;;;;;10366432;28;1959;-75
2023/03/03 23:06:48;;;;;;;;;;;17.90;44.10;;;;;;10366299;28;917;-75
2023/03/03 23:11:44;;;;;;;;;;;17.90;44.10;;;;;;10366594;28;887;-75
2023/03/03 23:16:39;;;;;;;;;;;17.90;44.00;;;;;;10366864;28;906;-75
2023/03/03 23:21:35;;;;;;;;;;;17.90;44.10;;;;;;10365958;28;1953;-74
2023/03/03 23:26:30;;;;;;;;;;;17.90;44.00;;;;;;10366536;28;866;-75
2023/03/03 23:31:25;;;;;;;;;;;17.90;43.90;;;;;;10366465;28;757;-75
2023/03/03 23:36:21;;;;;;;;;;;17.90;43.90;;;;;;10366603;28;877;-75
2023/03/03 23:41:16;;;;;;;;;;;17.90;44.00;;;;;;10365432;28;1902;-75
2023/03/03 23:46:11;;;;;;;;;;;17.90;44.00;;;;;;10365068;28;976;-75
2023/03/03 23:51:07;;;;;;;;;;;17.90;43.90;;;;;;10369071;28;931;-75
2023/03/03 23:56:02;;;;;;;;;;;17.90;44.00;;;;;;10373328;28;915;-74
